sensor_id;sensor_type;location;lat;lon;timestamp;pressure;altitude;pressure_sealevel;temperature;humidity
68988;BME280;56038;46.080;11.116;2023-02-03T00:01:23;100208.94;;;7.99;41.20
68988;BME280;56038;46.080;11.116;2023-02-03T00:06:26;100202.94;;;7.96;41.59
68988;BME280;56038;46.080;11.116;2023-02-03T00:11:29;100209.94;;;7.91;41.82
68988;BME280;56038;46.080;11.116;2023-02-03T00:16:31;100216.16;;;7.82;41.62
68988;BME280;56038;46.080;11.116;2023-02-03T00:21:34;100209.59;;;7.58;45.02
68988;BME280;56038;46.080;11.116;2023-02-03T00:26:40;100222.00;;;7.36;44.73
68988;BME280;56038;46.080;11.116;2023-02-03T00:31:41;100226.41;;;7.31;44.16
68988;BME280;56038;46.080;11.116;2023-02-03T00:36:45;100223.94;;;7.20;44.62
68988;BME280;56038;46.080;11.116;2023-02-03T00:41:47;100233.69;;;7.03;44.18
68988;BME280;56038;46.080;11.116;2023-02-03T00:46:49;100233.78;;;6.94;44.00
68988;BME280;56038;46.080;11.116;2023-02-03T00:51:52;100239.84;;;6.96;43.44
68988;BME280;56038;46.080;11.116;2023-02-03T00:56:54;100244.19;;;6.93;43.01
68988;BME280;56038;46.080;11.116;2023-02-03T01:01:55;100251.28;;;6.80;43.77
68988;BME280;56038;46.080;11.116;2023-02-03T01:06:59;100248.81;;;6.68;43.67
68988;BME280;56038;46.080;11.116;2023-02-03T01:12:00;100250.56;;;6.66;43.90
68988;BME280;56038;46.080;11.116;2023-02-03T01:17:02;100267.03;;;6.60;43.80
68988;BME280;56038;46.080;11.116;2023-02-03T01:22:05;100258.56;;;6.41;44.60
68988;BME280;56038;46.080;11.116;2023-02-03T01:27:07;100244.88;;;6.24;45.14
68988;BME280;56038;46.080;11.116;2023-02-03T01:32:11;100249.22;;;6.23;45.13
68988;BME280;56038;46.080;11.116;2023-02-03T01:37:14;100238.84;;;6.23;45.02
68988;BME280;56038;46.080;11.116;2023-02-03T01:42:17;100226.03;;;6.04;45.23
68988;BME280;56038;46.080;11.116;2023-02-03T01:47:26;100233.91;;;5.90;46.08
68988;BME280;56038;46.080;11.116;2023-02-03T01:52:30;100231.34;;;5.82;45.67
68988;BME280;56038;46.080;11.116;2023-02-03T01:57:36;100222.78;;;5.71;46.58
68988;BME280;56038;46.080;11.116;2023-02-03T02:02:40;100229.78;;;5.57;47.80
68988;BME280;56038;46.080;11.116;2023-02-03T02:07:45;100245.34;;;5.51;47.01
68988;BME280;56038;46.080;11.116;2023-02-03T02:12:48;100247.22;;;5.27;48.02
68988;BME280;56038;46.080;11.116;2023-02-03T02:18:01;100240.31;;;5.29;48.12
68988;BME280;56038;46.080;11.116;2023-02-03T02:23:35;100236.03;;;5.22;49.38
68988;BME280;56038;46.080;11.116;2023-02-03T02:28:54;100247.25;;;5.18;48.20
68988;BME280;56038;46.080;11.116;2023-02-03T02:34:07;100251.63;;;5.01;49.91
68988;BME280;56038;46.080;11.116;2023-02-03T02:39:14;100251.75;;;4.63;52.30
68988;BME280;56038;46.080;11.116;2023-02-03T02:44:23;100228.47;;;4.60;50.85
68988;BME280;56038;46.080;11.116;2023-02-03T02:49:31;100235.34;;;4.74;49.97
68988;BME280;56038;46.080;11.116;2023-02-03T02:54:38;100233.59;;;4.76;49.43
68988;BME280;56038;46.080;11.116;2023-02-03T02:59:41;100234.50;;;4.65;50.58
68988;BME280;56038;46.080;11.116;2023-02-03T03:04:46;100231.94;;;4.48;51.19
68988;BME280;56038;46.080;11.116;2023-02-03T03:09:51;100245.75;;;4.36;51.27
68988;BME280;56038;46.080;11.116;2023-02-03T03:14:56;100247.47;;;4.34;51.68
68988;BME280;56038;46.080;11.116;2023-02-03T03:20:04;100261.25;;;4.26;51.39
68988;BME280;56038;46.080;11.116;2023-02-03T03:25:13;100274.19;;;4.21;51.67
68988;BME280;56038;46.080;11.116;2023-02-03T03:30:21;100287.13;;;4.13;51.73
68988;BME280;56038;46.080;11.116;2023-02-03T03:35:30;100285.41;;;4.03;53.94
68988;BME280;56038;46.080;11.116;2023-02-03T03:40:37;100284.53;;;3.97;52.58
68988;BME280;56038;46.080;11.116;2023-02-03T03:45:46;100277.63;;;4.05;52.26
68988;BME280;56038;46.080;11.116;2023-02-03T03:50:54;100287.97;;;3.99;52.77
68988;BME280;56038;46.080;11.116;2023-02-03T03:56:00;100282.81;;;4.02;51.94
68988;BME280;56038;46.080;11.116;2023-02-03T04:01:05;100266.44;;;4.04;54.19
68988;BME280;56038;46.080;11.116;2023-02-03T04:06:10;100280.22;;;3.96;57.06
68988;BME280;56038;46.080;11.116;2023-02-03T04:11:12;100287.13;;;3.95;52.80
68988;BME280;56038;46.080;11.116;2023-02-03T04:16:34;100280.22;;;4.00;52.34
68988;BME280;56038;46.080;11.116;2023-02-03T04:21:37;100284.50;;;3.89;53.63
68988;BME280;56038;46.080;11.116;2023-02-03T04:26:39;100306.03;;;3.88;53.53
68988;BME280;56038;46.080;11.116;2023-02-03T04:31:41;100300.88;;;3.88;53.61
68988;BME280;56038;46.080;11.116;2023-02-03T04:36:44;100281.91;;;3.74;54.32
68988;BME280;56038;46.080;11.116;2023-02-03T04:41:45;100282.75;;;3.65;54.20
68988;BME280;56038;46.080;11.116;2023-02-03T04:46:47;100274.09;;;3.54;54.65
68988;BME280;56038;46.080;11.116;2023-02-03T04:51:50;100291.28;;;3.40;55.21
68988;BME280;56038;46.080;11.116;2023-02-03T04:56:52;100277.50;;;3.36;55.37
68988;BME280;56038;46.080;11.116;2023-02-03T05:01:54;100294.66;;;3.29;55.57
68988;BME280;56038;46.080;11.116;2023-02-03T05:06:57;100298.94;;;3.23;55.51
68988;BME280;56038;46.080;11.116;2023-02-03T05:11:59;100296.31;;;3.09;56.67
68988;BME280;56038;46.080;11.116;2023-02-03T05:17:01;100298.88;;;3.02;56.53
68988;BME280;56038;46.080;11.116;2023-02-03T05:22:04;100306.59;;;3.00;56.64
68988;BME280;56038;46.080;11.116;2023-02-03T05:27:05;100310.03;;;3.00;56.53
68988;BME280;56038;46.080;11.116;2023-02-03T05:32:07;100304.84;;;2.97;56.74
68988;BME280;56038;46.080;11.116;2023-02-03T05:37:10;100306.44;;;2.77;57.66
68988;BME280;56038;46.080;11.116;2023-02-03T05:42:12;100295.25;;;2.74;57.54
68988;BME280;56038;46.080;11.116;2023-02-03T05:47:14;100296.06;;;2.68;58.22
68988;BME280;56038;46.080;11.116;2023-02-03T05:52:17;100305.47;;;2.60;59.73
68988;BME280;56038;46.080;11.116;2023-02-03T05:57:19;100288.25;;;2.54;59.21
68988;BME280;56038;46.080;11.116;2023-02-03T06:02:20;100285.69;;;2.57;58.87
68988;BME280;56038;46.080;11.116;2023-02-03T06:07:24;100295.16;;;2.58;58.53
68988;BME280;56038;46.080;11.116;2023-02-03T06:12:25;100339.84;;;2.59;59.11
68988;BME280;56038;46.080;11.116;2023-02-03T06:17:28;100345.84;;;2.56;58.91
68988;BME280;56038;46.080;11.116;2023-02-03T06:22:32;100346.75;;;2.60;58.92
68988;BME280;56038;46.080;11.116;2023-02-03T06:27:34;100364.72;;;2.52;58.72
68988;BME280;56038;46.080;11.116;2023-02-03T06:32:36;100372.44;;;2.49;59.34
68988;BME280;56038;46.080;11.116;2023-02-03T06:37:39;100369.06;;;2.53;58.33
68988;BME280;56038;46.080;11.116;2023-02-03T06:42:44;100355.28;;;2.53;58.41
68988;BME280;56038;46.080;11.116;2023-02-03T06:47:46;100363.78;;;2.43;59.35
68988;BME280;56038;46.080;11.116;2023-02-03T06:52:49;100347.59;;;2.57;58.50
68988;BME280;56038;46.080;11.116;2023-02-03T06:57:51;100364.91;;;2.74;57.45
68988;BME280;56038;46.080;11.116;2023-02-03T07:02:53;100371.94;;;2.97;59.64
68988;BME280;56038;46.080;11.116;2023-02-03T07:07:56;100383.63;;;3.96;63.66
68988;BME280;56038;46.080;11.116;2023-02-03T07:13:01;100386.09;;;3.70;59.30
68988;BME280;56038;46.080;11.116;2023-02-03T07:18:04;100384.16;;;3.21;59.89
68988;BME280;56038;46.080;11.116;2023-02-03T07:23:07;100385.75;;;3.04;59.80
68988;BME280;56038;46.080;11.116;2023-02-03T07:28:09;100393.50;;;3.06;59.82
68988;BME280;56038;46.080;11.116;2023-02-03T07:33:10;100368.56;;;3.06;61.06
68988;BME280;56038;46.080;11.116;2023-02-03T07:38:14;100348.00;;;3.17;59.47
68988;BME280;56038;46.080;11.116;2023-02-03T07:43:16;100347.09;;;3.15;59.09
68988;BME280;56038;46.080;11.116;2023-02-03T07:48:17;100361.75;;;3.19;58.92
68988;BME280;56038;46.080;11.116;2023-02-03T07:53:21;100366.00;;;3.12;59.78
68988;BME280;56038;46.080;11.116;2023-02-03T07:58:23;100348.88;;;3.28;58.30
68988;BME280;56038;46.080;11.116;2023-02-03T08:03:25;100350.72;;;3.53;57.48
68988;BME280;56038;46.080;11.116;2023-02-03T08:08:28;100343.06;;;3.78;56.87
68988;BME280;56038;46.080;11.116;2023-02-03T08:13:29;100338.84;;;4.13;57.03
68988;BME280;56038;46.080;11.116;2023-02-03T08:18:31;100348.34;;;4.45;56.62
68988;BME280;56038;46.080;11.116;2023-02-03T08:23:34;100356.09;;;4.66;55.70
68988;BME280;56038;46.080;11.116;2023-02-03T08:28:36;100366.44;;;4.69;55.53
68988;BME280;56038;46.080;11.116;2023-02-03T08:33:38;100373.31;;;4.99;55.13
68988;BME280;56038;46.080;11.116;2023-02-03T08:38:41;100375.81;;;5.44;55.44
68988;BME280;56038;46.080;11.116;2023-02-03T08:43:43;100370.47;;;5.80;55.07
68988;BME280;56038;46.080;11.116;2023-02-03T08:48:45;100371.34;;;5.79;54.29
68988;BME280;56038;46.080;11.116;2023-02-03T08:53:48;100375.41;;;6.34;52.93
68988;BME280;56038;46.080;11.116;2023-02-03T08:58:50;100373.84;;;7.14;51.53
68988;BME280;56038;46.080;11.116;2023-02-03T09:03:52;100381.16;;;8.26;48.92
68988;BME280;56038;46.080;11.116;2023-02-03T09:08:55;100385.38;;;8.90;47.48
68988;BME280;56038;46.080;11.116;2023-02-03T09:13:57;100375.56;;;9.92;44.46
68988;BME280;56038;46.080;11.116;2023-02-03T09:18:59;100348.69;;;10.64;41.98
68988;BME280;56038;46.080;11.116;2023-02-03T09:24:03;100345.53;;;10.52;42.78
68988;BME280;56038;46.080;11.116;2023-02-03T09:29:05;100358.25;;;11.32;41.34
68988;BME280;56038;46.080;11.116;2023-02-03T09:34:07;100359.78;;;11.08;40.68
68988;BME280;56038;46.080;11.116;2023-02-03T09:39:10;100370.13;;;11.44;39.83
68988;BME280;56038;46.080;11.116;2023-02-03T09:44:15;100358.28;;;12.22;37.36
68988;BME280;56038;46.080;11.116;2023-02-03T09:49:20;100356.19;;;12.59;35.67
68988;BME280;56038;46.080;11.116;2023-02-03T09:54:30;100343.28;;;13.31;34.49
68988;BME280;56038;46.080;11.116;2023-02-03T09:59:38;100328.56;;;13.51;35.37
68988;BME280;56038;46.080;11.116;2023-02-03T10:04:44;100312.47;;;13.11;33.88
68988;BME280;56038;46.080;11.116;2023-02-03T10:09:59;100299.84;;;13.93;33.60
68988;BME280;56038;46.080;11.116;2023-02-03T10:15:19;100284.19;;;14.33;31.11
68988;BME280;56038;46.080;11.116;2023-02-03T10:20:33;100264.78;;;14.98;31.23
68988;BME280;56038;46.080;11.116;2023-02-03T10:25:40;100266.34;;;15.42;31.04
68988;BME280;56038;46.080;11.116;2023-02-03T10:30:46;100250.94;;;16.08;30.21
68988;BME280;56038;46.080;11.116;2023-02-03T10:35:50;100238.72;;;16.24;31.04
68988;BME280;56038;46.080;11.116;2023-02-03T10:40:54;100237.03;;;17.25;29.21
68988;BME280;56038;46.080;11.116;2023-02-03T10:45:57;100220.63;;;17.36;28.56
68988;BME280;56038;46.080;11.116;2023-02-03T10:51:01;100204.72;;;17.69;28.09
68988;BME280;56038;46.080;11.116;2023-02-03T10:56:07;100193.41;;;18.57;25.81
68988;BME280;56038;46.080;11.116;2023-02-03T11:01:11;100186.69;;;18.81;25.65
68988;BME280;56038;46.080;11.116;2023-02-03T11:06:15;100172.97;;;18.75;25.63
68988;BME280;56038;46.080;11.116;2023-02-03T11:11:22;100165.56;;;19.08;24.89
68988;BME280;56038;46.080;11.116;2023-02-03T11:16:25;100163.13;;;18.91;25.61
68988;BME280;56038;46.080;11.116;2023-02-03T11:21:29;100145.78;;;19.42;25.19
68988;BME280;56038;46.080;11.116;2023-02-03T11:26:35;100130.56;;;17.41;25.34
68988;BME280;56038;46.080;11.116;2023-02-03T11:31:37;100115.56;;;16.10;26.23
68988;BME280;56038;46.080;11.116;2023-02-03T11:36:39;100090.25;;;17.69;26.27
68988;BME280;56038;46.080;11.116;2023-02-03T11:41:42;100077.66;;;18.89;24.60
68988;BME280;56038;46.080;11.116;2023-02-03T11:46:45;100071.59;;;18.44;24.93
68988;BME280;56038;46.080;11.116;2023-02-03T11:51:55;100060.06;;;19.02;23.45
68988;BME280;56038;46.080;11.116;2023-02-03T11:57:19;100062.19;;;20.16;22.05
68988;BME280;56038;46.080;11.116;2023-02-03T12:02:50;100038.94;;;20.83;21.44
68988;BME280;56038;46.080;11.116;2023-02-03T12:08:14;100023.31;;;21.15;21.29
68988;BME280;56038;46.080;11.116;2023-02-03T12:13:33;100016.69;;;21.45;20.94
68988;BME280;56038;46.080;11.116;2023-02-03T12:18:51;100009.56;;;19.85;22.44
68988;BME280;56038;46.080;11.116;2023-02-03T12:24:03;99993.44;;;20.88;22.17
68988;BME280;56038;46.080;11.116;2023-02-03T12:29:11;99963.50;;;21.10;21.58
68988;BME280;56038;46.080;11.116;2023-02-03T12:34:18;99952.25;;;20.46;22.72
68988;BME280;56038;46.080;11.116;2023-02-03T12:39:25;99947.63;;;20.24;22.63
68988;BME280;56038;46.080;11.116;2023-02-03T12:44:34;99947.47;;;20.51;22.39
68988;BME280;56038;46.080;11.116;2023-02-03T12:49:44;99935.06;;;20.39;23.08
68988;BME280;56038;46.080;11.116;2023-02-03T12:54:53;99926.16;;;20.40;21.03
68988;BME280;56038;46.080;11.116;2023-02-03T13:00:04;99910.59;;;20.22;22.26
68988;BME280;56038;46.080;11.116;2023-02-03T13:05:19;99903.94;;;20.77;21.39
68988;BME280;56038;46.080;11.116;2023-02-03T13:10:30;99912.31;;;19.98;21.89
68988;BME280;56038;46.080;11.116;2023-02-03T13:15:38;99911.06;;;19.13;23.83
68988;BME280;56038;46.080;11.116;2023-02-03T13:20:44;99898.97;;;19.61;24.28
68988;BME280;56038;46.080;11.116;2023-02-03T13:25:56;99890.66;;;19.40;23.39
68988;BME280;56038;46.080;11.116;2023-02-03T13:31:20;99862.31;;;19.03;23.83
68988;BME280;56038;46.080;11.116;2023-02-03T13:37:00;99872.81;;;18.65;24.17
68988;BME280;56038;46.080;11.116;2023-02-03T13:42:19;99864.22;;;18.06;25.18
68988;BME280;56038;46.080;11.116;2023-02-03T13:47:26;99877.63;;;17.60;26.47
68988;BME280;56038;46.080;11.116;2023-02-03T13:52:33;99858.25;;;17.01;27.52
68988;BME280;56038;46.080;11.116;2023-02-03T13:57:37;99841.63;;;16.85;27.61
68988;BME280;56038;46.080;11.116;2023-02-03T14:02:45;99837.75;;;16.60;26.81
68988;BME280;56038;46.080;11.116;2023-02-03T14:07:52;99845.84;;;16.57;27.74
68988;BME280;56038;46.080;11.116;2023-02-03T14:12:56;99844.69;;;16.15;28.98
68988;BME280;56038;46.080;11.116;2023-02-03T14:23:28;99847.03;;;15.05;31.20
68988;BME280;56038;46.080;11.116;2023-02-03T14:28:39;99852.44;;;14.67;33.25
68988;BME280;56038;46.080;11.116;2023-02-03T14:34:01;99820.16;;;14.47;35.87
68988;BME280;56038;46.080;11.116;2023-02-03T14:45:05;99815.28;;;13.45;37.67
68988;BME280;56038;46.080;11.116;2023-02-03T14:50:23;99824.19;;;13.00;39.09
68988;BME280;56038;46.080;11.116;2023-02-03T14:55:35;99844.84;;;12.23;40.91
68988;BME280;56038;46.080;11.116;2023-02-03T15:00:40;99823.91;;;11.77;39.62
68988;BME280;56038;46.080;11.116;2023-02-03T15:05:45;99830.47;;;11.42;40.08
68988;BME280;56038;46.080;11.116;2023-02-03T15:10:47;99829.41;;;11.22;40.87
68988;BME280;56038;46.080;11.116;2023-02-03T15:15:51;99835.19;;;11.07;40.54
68988;BME280;56038;46.080;11.116;2023-02-03T15:20:55;99823.63;;;10.88;41.11
68988;BME280;56038;46.080;11.116;2023-02-03T15:25:58;99808.47;;;10.72;40.66
68988;BME280;56038;46.080;11.116;2023-02-03T15:31:04;99793.00;;;10.66;41.62
68988;BME280;56038;46.080;11.116;2023-02-03T15:36:16;99810.03;;;10.52;44.20
68988;BME280;56038;46.080;11.116;2023-02-03T15:41:23;99808.84;;;10.35;43.04
68988;BME280;56038;46.080;11.116;2023-02-03T15:46:28;99807.06;;;10.36;41.66
68988;BME280;56038;46.080;11.116;2023-02-03T15:51:34;99821.94;;;10.34;42.24
68988;BME280;56038;46.080;11.116;2023-02-03T15:56:39;99825.41;;;10.34;42.31
68988;BME280;56038;46.080;11.116;2023-02-03T16:01:43;99826.53;;;10.27;41.63
68988;BME280;56038;46.080;11.116;2023-02-03T16:06:47;99826.81;;;10.16;42.49
68988;BME280;56038;46.080;11.116;2023-02-03T16:12:02;99836.66;;;10.07;44.58
68988;BME280;56038;46.080;11.116;2023-02-03T16:17:13;99837.44;;;9.82;45.89
68988;BME280;56038;46.080;11.116;2023-02-03T16:22:29;99833.50;;;9.68;46.37
68988;BME280;56038;46.080;11.116;2023-02-03T16:27:32;99854.84;;;9.51;44.71
68988;BME280;56038;46.080;11.116;2023-02-03T16:32:34;99842.28;;;9.34;46.14
68988;BME280;56038;46.080;11.116;2023-02-03T16:37:55;99844.31;;;9.23;46.09
68988;BME280;56038;46.080;11.116;2023-02-03T16:43:15;99843.69;;;9.13;45.74
68988;BME280;56038;46.080;11.116;2023-02-03T16:48:35;99853.38;;;9.10;45.57
68988;BME280;56038;46.080;11.116;2023-02-03T16:53:56;99831.22;;;8.93;46.79
68988;BME280;56038;46.080;11.116;2023-02-03T16:58:57;99827.06;;;8.86;46.85
68988;BME280;56038;46.080;11.116;2023-02-03T17:03:59;99835.88;;;8.81;47.20
68988;BME280;56038;46.080;11.116;2023-02-03T17:09:02;99855.25;;;8.70;46.62
68988;BME280;56038;46.080;11.116;2023-02-03T17:14:04;99840.75;;;8.60;46.92
68988;BME280;56038;46.080;11.116;2023-02-03T17:19:09;99854.97;;;8.46;47.63
68988;BME280;56038;46.080;11.116;2023-02-03T17:24:12;99846.59;;;8.31;48.81
68988;BME280;56038;46.080;11.116;2023-02-03T17:29:14;99840.78;;;8.22;48.82
68988;BME280;56038;46.080;11.116;2023-02-03T17:34:15;99851.44;;;8.09;49.21
68988;BME280;56038;46.080;11.116;2023-02-03T17:39:19;99850.91;;;7.95;49.68
68988;BME280;56038;46.080;11.116;2023-02-03T17:44:20;99846.59;;;7.94;49.71
68988;BME280;56038;46.080;11.116;2023-02-03T17:49:22;99861.25;;;7.97;48.87
68988;BME280;56038;46.080;11.116;2023-02-03T17:54:25;99856.47;;;7.78;50.96
68988;BME280;56038;46.080;11.116;2023-02-03T17:59:27;99849.66;;;7.71;50.30
68988;BME280;56038;46.080;11.116;2023-02-03T18:04:29;99834.25;;;7.62;50.85
68988;BME280;56038;46.080;11.116;2023-02-03T18:09:32;99846.47;;;7.57;50.38
68988;BME280;56038;46.080;11.116;2023-02-03T18:14:34;99829.38;;;7.47;52.28
68988;BME280;56038;46.080;11.116;2023-02-03T18:19:36;99837.34;;;7.38;53.01
68988;BME280;56038;46.080;11.116;2023-02-03T18:24:39;99838.53;;;7.21;52.21
68988;BME280;56038;46.080;11.116;2023-02-03T18:29:44;99834.31;;;7.16;55.77
68988;BME280;56038;46.080;11.116;2023-02-03T18:34:45;99835.22;;;7.15;52.21
68988;BME280;56038;46.080;11.116;2023-02-03T18:39:49;99814.63;;;7.04;56.52
68988;BME280;56038;46.080;11.116;2023-02-03T18:44:50;99820.91;;;6.91;53.54
68988;BME280;56038;46.080;11.116;2023-02-03T18:49:52;99799.25;;;6.92;53.13
68988;BME280;56038;46.080;11.116;2023-02-03T18:54:55;99803.47;;;6.99;52.41
68988;BME280;56038;46.080;11.116;2023-02-03T18:59:57;99797.00;;;6.74;54.10
68988;BME280;56038;46.080;11.116;2023-02-03T19:04:59;99796.16;;;6.72;53.29
68988;BME280;56038;46.080;11.116;2023-02-03T19:10:02;99801.50;;;6.64;53.31
68988;BME280;56038;46.080;11.116;2023-02-03T19:15:05;99795.56;;;6.56;54.38
68988;BME280;56038;46.080;11.116;2023-02-03T19:20:08;99792.41;;;6.39;56.16
68988;BME280;56038;46.080;11.116;2023-02-03T19:25:11;99788.41;;;6.19;56.18
68988;BME280;56038;46.080;11.116;2023-02-03T19:30:13;99776.22;;;6.24;57.22
68988;BME280;56038;46.080;11.116;2023-02-03T19:35:15;99773.47;;;6.34;55.16
68988;BME280;56038;46.080;11.116;2023-02-03T19:40:19;99784.72;;;6.34;55.03
68988;BME280;56038;46.080;11.116;2023-02-03T19:45:21;99777.84;;;6.30;54.57
68988;BME280;56038;46.080;11.116;2023-02-03T19:50:23;99786.56;;;6.26;54.85
68988;BME280;56038;46.080;11.116;2023-02-03T19:55:26;99792.09;;;6.05;55.02
68988;BME280;56038;46.080;11.116;2023-02-03T20:00:30;99805.94;;;6.04;55.62
68988;BME280;56038;46.080;11.116;2023-02-03T20:05:32;99781.91;;;5.89;58.49
68988;BME280;56038;46.080;11.116;2023-02-03T20:10:36;99787.16;;;5.86;56.28
68988;BME280;56038;46.080;11.116;2023-02-03T20:15:38;99799.28;;;5.81;56.34
68988;BME280;56038;46.080;11.116;2023-02-03T20:20:40;99775.28;;;5.70;57.71
68988;BME280;56038;46.080;11.116;2023-02-03T20:25:43;99778.72;;;5.70;57.29
68988;BME280;56038;46.080;11.116;2023-02-03T20:30:49;99785.66;;;5.67;56.55
68988;BME280;56038;46.080;11.116;2023-02-03T20:35:51;99791.78;;;5.63;57.51
68988;BME280;56038;46.080;11.116;2023-02-03T20:40:54;99781.69;;;5.41;58.46
68988;BME280;56038;46.080;11.116;2023-02-03T20:45:56;99779.09;;;5.41;58.27
68988;BME280;56038;46.080;11.116;2023-02-03T20:50:58;99774.00;;;5.35;58.31
68988;BME280;56038;46.080;11.116;2023-02-03T20:56:01;99761.09;;;5.32;58.64
68988;BME280;56038;46.080;11.116;2023-02-03T21:01:11;99759.38;;;5.30;59.17
68988;BME280;56038;46.080;11.116;2023-02-03T21:06:15;99764.63;;;5.27;58.36
68988;BME280;56038;46.080;11.116;2023-02-03T21:11:19;99743.19;;;5.14;58.78
68988;BME280;56038;46.080;11.116;2023-02-03T21:16:32;99742.44;;;5.04;59.59
68988;BME280;56038;46.080;11.116;2023-02-03T21:21:37;99743.31;;;5.05;58.95
68988;BME280;56038;46.080;11.116;2023-02-03T21:26:42;99759.72;;;5.05;59.61
68988;BME280;56038;46.080;11.116;2023-02-03T21:31:44;99740.75;;;5.00;59.30
68988;BME280;56038;46.080;11.116;2023-02-03T21:36:46;99733.25;;;4.79;60.08
68988;BME280;56038;46.080;11.116;2023-02-03T21:41:49;99743.78;;;4.62;60.71
68988;BME280;56038;46.080;11.116;2023-02-03T21:46:51;99756.81;;;4.51;60.91
68988;BME280;56038;46.080;11.116;2023-02-03T21:51:53;99740.50;;;4.45;61.42
68988;BME280;56038;46.080;11.116;2023-02-03T21:56:56;99743.97;;;4.44;61.17
68988;BME280;56038;46.080;11.116;2023-02-03T22:01:58;99756.84;;;4.47;61.55
68988;BME280;56038;46.080;11.116;2023-02-03T22:07:04;99751.59;;;4.55;60.79
68988;BME280;56038;46.080;11.116;2023-02-03T22:12:16;99762.94;;;4.43;62.44
68988;BME280;56038;46.080;11.116;2023-02-03T22:17:17;99764.78;;;4.29;62.31
68988;BME280;56038;46.080;11.116;2023-02-03T22:22:19;99770.84;;;4.26;61.32
68988;BME280;56038;46.080;11.116;2023-02-03T22:27:22;99769.09;;;4.30;61.75
68988;BME280;56038;46.080;11.116;2023-02-03T22:32:24;99770.91;;;4.15;63.24
68988;BME280;56038;46.080;11.116;2023-02-03T22:37:26;99783.00;;;4.13;63.37
68988;BME280;56038;46.080;11.116;2023-02-03T22:42:29;99791.56;;;4.18;62.88
68988;BME280;56038;46.080;11.116;2023-02-03T22:47:31;99807.03;;;4.23;62.03
68988;BME280;56038;46.080;11.116;2023-02-03T22:52:33;99806.25;;;4.16;62.36
68988;BME280;56038;46.080;11.116;2023-02-03T22:57:36;99798.41;;;4.27;62.15
68988;BME280;56038;46.080;11.116;2023-02-03T23:02:38;99788.06;;;4.27;62.32
68988;BME280;56038;46.080;11.116;2023-02-03T23:07:40;99770.00;;;4.22;63.73
68988;BME280;56038;46.080;11.116;2023-02-03T23:12:44;99771.69;;;4.27;62.74
68988;BME280;56038;46.080;11.116;2023-02-03T23:17:49;99752.72;;;4.28;63.04
68988;BME280;56038;46.080;11.116;2023-02-03T23:22:50;99747.56;;;4.26;63.03
68988;BME280;56038;46.080;11.116;2023-02-03T23:27:53;99740.69;;;4.22;62.63
68988;BME280;56038;46.080;11.116;2023-02-03T23:32:55;99729.50;;;4.20;63.03
68988;BME280;56038;46.080;11.116;2023-02-03T23:37:57;99721.78;;;4.18;62.73
68988;BME280;56038;46.080;11.116;2023-02-03T23:43:00;99730.47;;;4.08;62.94
68988;BME280;56038;46.080;11.116;2023-02-03T23:48:02;99711.50;;;4.12;62.56
68988;BME280;56038;46.080;11.116;2023-02-03T23:53:04;99709.78;;;4.07;63.80
68988;BME280;56038;46.080;11.116;2023-02-03T23:58:07;99722.81;;;3.96;65.85
